Station Historical Data
Daily Summary for July 11, 2017 Units:  English    Metric   Both
« Previous Day
Next Day »
Daily Weekly Monthly Yearly Custom
  High: Low: Average:
Temperature: 89.3 °F 71.3 °F 75.9 °F
Dew Point: 75.7 °F 68.2 °F 70.9 °F
Humidity: 93% 61% 85%
Wind Speed: 4.6mph 0.0mph 3.7mph
Wind Gust: 4.6mph - -
Wind- - SW
Pressure: 30.12 in 30.03 in -
Precipitation: 0.00 in    
Historical Graphs
 
 
Tabular Data for July 11, 2017
Time Temperature Dew Point Pressure Wind Wind Speed Wind Gust Humidity Rainfall Rate (Hourly) solar Conditions
00:02 74.1 °F 69.6 °F 30.06 in NW 4.6 mph   86% 0.00 in WeatherDisplay:10.37 W/m2 SCT
00:07 73.9 °F 69.4 °F 30.06 in NW 4.6 mph   86% 0.00 in WeatherDisplay:10.37 W/m2 SCT
00:12 73.9 °F 69.4 °F 30.06 in NW 4.6 mph   86% 0.00 in WeatherDisplay:10.37 W/m2 SCT
00:17 73.8 °F 69.3 °F 30.06 in NW 4.6 mph   86% 0.00 in WeatherDisplay:10.37 W/m2 SCT
00:22 73.8 °F 69.7 °F 30.07 in NW 4.6 mph   87% 0.00 in WeatherDisplay:10.37 W/m2 CLR
00:27 73.7 °F 69.6 °F 30.07 in NW 4.6 mph   87% 0.00 in WeatherDisplay:10.37 W/m2 CLR
00:32 73.7 °F 69.6 °F 30.07 in NW 4.6 mph   87% 0.00 in WeatherDisplay:10.37 W/m2 CLR
00:37 73.7 °F 69.6 °F 30.07 in NW 4.6 mph   87% 0.00 in WeatherDisplay:10.37 W/m2 CLR
00:42 73.6 °F 69.5 °F 30.07 in NW 4.6 mph   87% 0.00 in WeatherDisplay:10.37 W/m2 CLR
00:47 72.6 °F 68.2 °F 30.06 in NW 4.6 mph   86% 0.00 in WeatherDisplay:10.37 W/m2 CLR
00:52 72.8 °F 68.4 °F 30.06 in NNW 4.6 mph   86% 0.00 in WeatherDisplay:10.37 W/m2 CLR
00:57 72.8 °F 68.4 °F 30.06 in NNW 4.6 mph   86% 0.00 in WeatherDisplay:10.37 W/m2 CLR
01:02 72.8 °F 68.4 °F 30.06 in North 4.6 mph   86% 0.00 in WeatherDisplay:10.37 W/m2 CLR
01:07 72.8 °F 68.4 °F 30.06 in North 4.6 mph   86% 0.00 in WeatherDisplay:10.37 W/m2 CLR
01:12 72.8 °F 68.4 °F 30.06 in North 4.6 mph   86% 0.00 in WeatherDisplay:10.37 W/m2 CLR
01:16 72.8 °F 68.4 °F 30.06 in North 4.6 mph   86% 0.00 in WeatherDisplay:10.37 W/m2 CLR
01:21 72.8 °F 68.4 °F 30.06 in North 4.6 mph   86% 0.00 in WeatherDisplay:10.37 W/m2 CLR
01:26 72.8 °F 68.4 °F 30.06 in North 4.6 mph   86% 0.00 in WeatherDisplay:10.37 W/m2 CLR
01:31 72.8 °F 68.4 °F 30.06 in North 4.6 mph   86% 0.00 in WeatherDisplay:10.37 W/m2 CLR
01:37 72.8 °F 68.4 °F 30.06 in North 4.6 mph   86% 0.00 in WeatherDisplay:10.37 W/m2 CLR
01:42 72.8 °F 68.4 °F 30.07 in North 4.6 mph   86% 0.00 in WeatherDisplay:10.37 W/m2 CLR
01:47 72.8 °F 68.4 °F 30.06 in North 4.6 mph   86% 0.00 in WeatherDisplay:10.37 W/m2 CLR
01:52 72.8 °F 68.4 °F 30.06 in North 4.6 mph   86% 0.00 in WeatherDisplay:10.37 W/m2 CLR
01:57 72.8 °F 68.4 °F 30.06 in North 4.6 mph   86% 0.00 in WeatherDisplay:10.37 W/m2 CLR
02:02 72.8 °F 68.4 °F 30.06 in North 4.6 mph   86% 0.00 in WeatherDisplay:10.37 W/m2 CLR
02:07 72.8 °F 68.4 °F 30.06 in North 4.6 mph   86% 0.00 in WeatherDisplay:10.37 W/m2 CLR
02:12 72.8 °F 68.4 °F 30.06 in North 4.6 mph   86% 0.00 in WeatherDisplay:10.37 W/m2 CLR
02:17 72.8 °F 68.4 °F 30.05 in North 4.6 mph   86% 0.00 in WeatherDisplay:10.37 W/m2 CLR
02:22 72.8 °F 68.4 °F 30.05 in North 4.6 mph   86% 0.00 in WeatherDisplay:10.37 W/m2 CLR
02:27 72.8 °F 68.4 °F 30.05 in North 4.6 mph   86% 0.00 in WeatherDisplay:10.37 W/m2 CLR
02:32 72.8 °F 68.4 °F 30.05 in North 4.6 mph   86% 0.00 in WeatherDisplay:10.37 W/m2 CLR
02:37 72.8 °F 68.4 °F 30.05 in North 4.6 mph   86% 0.00 in WeatherDisplay:10.37 W/m2 CLR
02:42 72.8 °F 68.4 °F 30.05 in North 4.6 mph   86% 0.00 in WeatherDisplay:10.37 W/m2 CLR
02:47 72.8 °F 68.4 °F 30.05 in North 4.6 mph   86% 0.00 in WeatherDisplay:10.37 W/m2 CLR
02:52 72.8 °F 68.4 °F 30.05 in North 4.6 mph   86% 0.00 in WeatherDisplay:10.37 W/m2 CLR
02:57 72.8 °F 68.4 °F 30.05 in North 4.6 mph   86% 0.00 in WeatherDisplay:10.37 W/m2 CLR
03:02 72.8 °F 68.4 °F 30.05 in North 4.6 mph   86% 0.00 in WeatherDisplay:10.37 W/m2 CLR
03:07 72.8 °F 68.4 °F 30.05 in North 4.6 mph   86% 0.00 in WeatherDisplay:10.37 W/m2 CLR
03:12 72.8 °F 68.4 °F 30.05 in North 4.6 mph   86% 0.00 in WeatherDisplay:10.37 W/m2 CLR
03:18 72.8 °F 68.4 °F 30.05 in North 4.6 mph   86% 0.00 in WeatherDisplay:10.37 W/m2 CLR
03:23 72.8 °F 68.4 °F 30.05 in North 4.6 mph   86% 0.00 in WeatherDisplay:10.37 W/m2 CLR
03:28 72.8 °F 68.4 °F 30.05 in North 4.6 mph   86% 0.00 in WeatherDisplay:10.37 W/m2 CLR
03:33 72.8 °F 68.4 °F 30.05 in North 4.6 mph   86% 0.00 in WeatherDisplay:10.37 W/m2 CLR
03:38 72.8 °F 68.4 °F 30.05 in North 4.6 mph   86% 0.00 in WeatherDisplay:10.37 W/m2 CLR
03:43 72.8 °F 68.4 °F 30.05 in North 4.6 mph   86% 0.00 in WeatherDisplay:10.37 W/m2 CLR
03:48 72.8 °F 68.4 °F 30.05 in North 4.6 mph   86% 0.00 in WeatherDisplay:10.37 W/m2 CLR
03:53 72.8 °F 68.4 °F 30.05 in North 4.6 mph   86% 0.00 in WeatherDisplay:10.37 W/m2 CLR
03:58 72.8 °F 68.4 °F 30.05 in North 4.6 mph   86% 0.00 in WeatherDisplay:10.37 W/m2 CLR
04:03 72.8 °F 68.4 °F 30.05 in North 4.6 mph   86% 0.00 in WeatherDisplay:10.37 W/m2 CLR
04:08 72.8 °F 68.4 °F 30.05 in North 4.6 mph   86% 0.00 in WeatherDisplay:10.37 W/m2 CLR
04:13 72.8 °F 68.4 °F 30.05 in North 4.6 mph   86% 0.00 in WeatherDisplay:10.37 W/m2 CLR
04:18 72.8 °F 68.4 °F 30.05 in North 4.6 mph   86% 0.00 in WeatherDisplay:10.37 W/m2 CLR
04:23 72.8 °F 68.4 °F 30.04 in North 4.6 mph   86% 0.00 in WeatherDisplay:10.37 W/m2 CLR
04:28 72.8 °F 68.4 °F 30.05 in North 4.6 mph   86% 0.00 in WeatherDisplay:10.37 W/m2 CLR
04:34 72.8 °F 68.4 °F 30.05 in North 4.6 mph   86% 0.00 in WeatherDisplay:10.37 W/m2 CLR
04:39 72.8 °F 68.4 °F 30.05 in North 4.6 mph   86% 0.00 in WeatherDisplay:10.37 W/m2 CLR
04:44 72.8 °F 68.4 °F 30.05 in North 4.6 mph   86% 0.00 in WeatherDisplay:10.37 W/m2 CLR
04:49 72.8 °F 68.4 °F 30.05 in North 4.6 mph   86% 0.00 in WeatherDisplay:10.37 W/m2 CLR
04:54 72.8 °F 68.4 °F 30.05 in North 4.6 mph   86% 0.00 in WeatherDisplay:10.37 W/m2 CLR
04:59 72.8 °F 68.4 °F 30.05 in North 4.6 mph   86% 0.00 in WeatherDisplay:10.37 W/m2 CLR
05:04 72.8 °F 68.4 °F 30.05 in North 4.6 mph   86% 0.00 in WeatherDisplay:10.37 W/m2 CLR
05:09 72.8 °F 68.4 °F 30.05 in North 4.6 mph   86% 0.00 in WeatherDisplay:10.37 W/m2 CLR
05:14 72.8 °F 68.4 °F 30.05 in North 4.6 mph   86% 0.00 in WeatherDisplay:10.37 W/m2 CLR
05:19 72.8 °F 68.4 °F 30.05 in North 4.6 mph   86% 0.00 in WeatherDisplay:10.37 W/m2 CLR
05:24 72.8 °F 68.4 °F 30.05 in North 4.6 mph   86% 0.00 in WeatherDisplay:10.37 W/m2 CLR
05:29 72.8 °F 68.4 °F 30.05 in North 4.6 mph   86% 0.00 in WeatherDisplay:10.37 W/m2 CLR
05:34 72.8 °F 68.4 °F 30.05 in North 4.6 mph   86% 0.00 in WeatherDisplay:10.37 W/m2 CLR
05:39 72.8 °F 68.4 °F 30.05 in North 4.6 mph   86% 0.00 in WeatherDisplay:10.37 W/m2 CLR
05:44 72.8 °F 68.4 °F 30.05 in North 4.6 mph   86% 0.00 in WeatherDisplay:10.37 W/m2 CLR
05:49 72.8 °F 68.4 °F 30.06 in North 4.6 mph   86% 0.00 in WeatherDisplay:10.37 W/m2 CLR
05:54 72.8 °F 68.4 °F 30.05 in North 4.6 mph   86% 0.00 in WeatherDisplay:10.37 W/m2 CLR
05:59 72.8 °F 68.4 °F 30.06 in North 4.6 mph   86% 0.00 in WeatherDisplay:10.37 W/m2 CLR
06:04 72.8 °F 68.4 °F 30.05 in North 4.6 mph   86% 0.00 in WeatherDisplay:10.37 W/m2 CLR
06:09 72.8 °F 68.4 °F 30.06 in North 4.6 mph   86% 0.00 in WeatherDisplay:10.37 W/m2 CLR
06:15 72.8 °F 68.4 °F 30.06 in Calm     86% 0.00 in WeatherDisplay:10.37 W/m2 CLR
06:20 72.8 °F 68.4 °F 30.06 in Calm     86% 0.00 in WeatherDisplay:10.37 W/m2 CLR
06:25 72.8 °F 68.4 °F 30.06 in Calm     86% 0.00 in WeatherDisplay:10.37 W/m2 CLR
06:30 72.8 °F 68.4 °F 30.06 in Calm     86% 0.00 in WeatherDisplay:10.37 W/m2 CLR
06:35 72.8 °F 68.4 °F 30.06 in Calm     86% 0.00 in WeatherDisplay:10.37 W/m2 CLR
06:40 72.8 °F 68.4 °F 30.06 in Calm     86% 0.00 in WeatherDisplay:10.37 W/m2 CLR
06:45 72.8 °F 68.4 °F 30.06 in Calm     86% 0.00 in WeatherDisplay:10.37 W/m2 CLR
06:50 72.8 °F 68.4 °F 30.06 in Calm     86% 0.00 in WeatherDisplay:10.37 W/m2 CLR
06:55 72.8 °F 68.4 °F 30.06 in Calm     86% 0.00 in WeatherDisplay:10.37 W/m2 CLR
07:00 72.8 °F 68.4 °F 30.07 in Calm     86% 0.00 in WeatherDisplay:10.37 W/m2 CLR
07:05 72.8 °F 68.4 °F 30.07 in Calm     86% 0.00 in WeatherDisplay:10.37 W/m2 CLR
07:07 72.8 °F 68.4 °F 30.07 in North 4.6 mph   86% 0.00 in WeatherDisplay:10.37 W/m2 CLR
07:12 72.8 °F 68.4 °F 30.07 in North 4.6 mph   86% 0.00 in WeatherDisplay:10.37 W/m2 CLR
07:17 72.8 °F 68.4 °F 30.07 in North 4.6 mph   86% 0.00 in WeatherDisplay:10.37 W/m2 CLR
07:22 72.8 °F 68.4 °F 30.07 in North 4.6 mph   86% 0.00 in WeatherDisplay:10.37 W/m2 FEW
07:27 72.8 °F 68.4 °F 30.08 in North 4.6 mph   86% 0.00 in WeatherDisplay:10.37 W/m2 FEW
07:32 72.8 °F 68.4 °F 30.08 in North 4.6 mph   86% 0.00 in WeatherDisplay:10.37 W/m2 FEW
07:38 72.8 °F 68.4 °F 30.08 in North 4.6 mph   86% 0.00 in WeatherDisplay:10.37 W/m2 FEW
07:43 72.8 °F 68.4 °F 30.08 in North 4.6 mph   86% 0.00 in WeatherDisplay:10.37 W/m2 FEW
07:48 72.8 °F 68.4 °F 30.08 in North 4.6 mph   86% 0.00 in WeatherDisplay:10.37 W/m2 FEW
07:53 71.3 °F 69.2 °F 30.08 in NW 4.6 mph   93% 0.00 in WeatherDisplay:10.37 W/m2 FEW
07:58 71.4 °F 69.3 °F 30.08 in NW 4.6 mph   93% 0.00 in WeatherDisplay:10.37 W/m2 FEW
07:59 71.5 °F 69.4 °F 30.08 in NW 4.6 mph   93% 0.00 in WeatherDisplay:10.37 W/m2 FEW
08:04 71.6 °F 69.5 °F 30.08 in NW 4.6 mph   93% 0.00 in WeatherDisplay:10.37 W/m2 FEW
08:09 71.9 °F 69.8 °F 30.09 in NW 4.6 mph   93% 0.00 in WeatherDisplay:10.37 W/m2 FEW
08:14 72.1 °F 70.0 °F 30.09 in NW 4.6 mph   93% 0.00 in WeatherDisplay:10.37 W/m2 FEW
08:19 72.4 °F 70.3 °F 30.09 in NW 4.6 mph   93% 0.00 in WeatherDisplay:10.37 W/m2 FEW
08:24 72.7 °F 70.6 °F 30.09 in NW 4.6 mph   93% 0.00 in WeatherDisplay:10.37 W/m2 FEW
08:29 73.0 °F 70.9 °F 30.09 in NW 4.6 mph   93% 0.00 in WeatherDisplay:10.37 W/m2 FEW
08:34 73.4 °F 70.9 °F 30.09 in NW 4.6 mph   92% 0.00 in WeatherDisplay:10.37 W/m2 FEW
08:39 73.9 °F 71.1 °F 30.09 in NW 4.6 mph   91% 0.00 in WeatherDisplay:10.37 W/m2 FEW
08:44 74.3 °F 71.5 °F 30.09 in NW 4.6 mph   91% 0.00 in WeatherDisplay:10.37 W/m2 FEW
08:49 74.7 °F 71.6 °F 30.09 in NW 4.6 mph   90% 0.00 in WeatherDisplay:10.37 W/m2 FEW
08:54 75.1 °F 71.6 °F 30.09 in NNW 4.6 mph   89% 0.00 in WeatherDisplay:10.37 W/m2 FEW
08:59 75.5 °F 71.7 °F 30.09 in NW 4.6 mph 4.6 mph 88% 0.00 in WeatherDisplay:10.37 W/m2 FEW
09:04 75.8 °F 71.7 °F 30.09 in NW 4.6 mph   87% 0.00 in WeatherDisplay:10.37 W/m2 FEW
09:10 76.1 °F 71.9 °F 30.10 in NW 4.6 mph   87% 0.00 in WeatherDisplay:10.37 W/m2 FEW
09:15 76.3 °F 72.2 °F 30.10 in Calm     87% 0.00 in WeatherDisplay:10.37 W/m2 FEW
09:20 76.6 °F 72.1 °F 30.10 in Calm     86% 0.00 in WeatherDisplay:10.37 W/m2 SCT
09:25 76.9 °F 72.0 °F 30.10 in Calm     85% 0.00 in WeatherDisplay:10.37 W/m2 SCT
09:30 77.2 °F 72.3 °F 30.10 in NNE 4.6 mph   85% 0.00 in WeatherDisplay:10.37 W/m2 SCT
09:35 77.4 °F 72.5 °F 30.10 in Calm     85% 0.00 in WeatherDisplay:10.37 W/m2 SCT
09:40 77.7 °F 72.4 °F 30.11 in Calm     84% 0.00 in WeatherDisplay:10.37 W/m2 SCT
09:45 77.9 °F 72.4 °F 30.11 in Calm     83% 0.00 in WeatherDisplay:10.37 W/m2 SCT
09:50 78.2 °F 72.6 °F 30.11 in Calm     83% 0.00 in WeatherDisplay:10.37 W/m2 SCT
09:55 78.5 °F 72.6 °F 30.11 in Calm     82% 0.00 in WeatherDisplay:10.37 W/m2 SCT
10:00 79.0 °F 73.4 °F 30.11 in NNE 4.6 mph   83% 0.00 in WeatherDisplay:10.37 W/m2 SCT
10:05 79.5 °F 73.5 °F 30.10 in Calm     82% 0.00 in WeatherDisplay:10.37 W/m2 SCT
10:10 79.9 °F 73.2 °F 30.10 in Calm     80% 0.00 in WeatherDisplay:10.37 W/m2 SCT
10:15 80.2 °F 72.7 °F 30.10 in Calm     78% 0.00 in WeatherDisplay:10.37 W/m2 SCT
10:20 80.6 °F 73.5 °F 30.10 in Calm     79% 0.00 in WeatherDisplay:10.37 W/m2 SCT
10:25 81.0 °F 73.1 °F 30.10 in Calm     77% 0.00 in WeatherDisplay:10.37 W/m2 SCT
10:30 81.4 °F 73.1 °F 30.10 in Calm     76% 0.00 in WeatherDisplay:10.37 W/m2 SCT
10:35 81.6 °F 72.9 °F 30.10 in Calm   1.0 mph 75% 0.00 in WeatherDisplay:10.37 W/m2 SCT
10:40 81.8 °F 72.7 °F 30.10 in North 4.6 mph   74% 0.00 in WeatherDisplay:10.37 W/m2 SCT
10:45 82.1 °F 73.8 °F 30.10 in Calm     76% 0.00 in WeatherDisplay:10.37 W/m2 SCT
10:50 82.6 °F 73.1 °F 30.10 in Calm   1.0 mph 73% 0.00 in WeatherDisplay:10.37 W/m2 SCT
10:55 82.9 °F 73.8 °F 30.10 in NNW 4.6 mph   74% 0.00 in WeatherDisplay:10.37 W/m2 SCT
11:00 83.2 °F 74.8 °F 30.11 in NNW 4.6 mph   76% 0.00 in WeatherDisplay:10.37 W/m2 SCT
11:05 83.6 °F 74.0 °F 30.10 in Calm   1.0 mph 73% 0.00 in WeatherDisplay:10.37 W/m2 SCT
11:10 84.0 °F 74.4 °F 30.10 in Calm     73% 0.00 in WeatherDisplay:10.37 W/m2 SCT
11:15 84.1 °F 74.9 °F 30.10 in Calm     74% 0.00 in WeatherDisplay:10.37 W/m2 SCT
11:20 84.3 °F 74.3 °F 30.10 in Calm   1.0 mph 72% 0.00 in WeatherDisplay:10.37 W/m2 BKN
11:25 84.6 °F 74.2 °F 30.10 in Calm   1.0 mph 71% 0.00 in WeatherDisplay:10.37 W/m2 BKN
11:30 84.7 °F 73.8 °F 30.10 in Calm     70% 0.00 in WeatherDisplay:10.37 W/m2 BKN
11:35 84.5 °F 73.6 °F 30.10 in Calm     70% 0.00 in WeatherDisplay:10.37 W/m2 BKN
11:40 84.5 °F 74.1 °F 30.10 in Calm     71% 0.00 in WeatherDisplay:10.37 W/m2 BKN
11:45 83.9 °F 73.5 °F 30.10 in NW 4.6 mph   71% 0.00 in WeatherDisplay:10.37 W/m2 BKN
11:50 83.8 °F 73.8 °F 30.10 in NW 4.6 mph   72% 0.00 in WeatherDisplay:10.37 W/m2 BKN
11:55 83.6 °F 73.6 °F 30.10 in NW 4.6 mph   72% 0.00 in WeatherDisplay:10.37 W/m2 BKN
12:00 83.5 °F 73.9 °F 30.10 in NW 4.6 mph   73% 0.00 in WeatherDisplay:10.37 W/m2 BKN
12:05 83.6 °F 74.0 °F 30.10 in NW 4.6 mph   73% 0.00 in WeatherDisplay:10.37 W/m2 BKN
12:10 83.8 °F 74.6 °F 30.09 in West 4.6 mph   74% 0.00 in WeatherDisplay:10.37 W/m2 BKN
12:15 84.3 °F 74.7 °F 30.09 in West 4.6 mph 4.6 mph 73% 0.00 in WeatherDisplay:10.37 W/m2 BKN
12:21 84.8 °F 74.8 °F 30.09 in West 4.6 mph   72% 0.00 in WeatherDisplay:10.37 W/m2 BKN
12:26 85.2 °F 74.3 °F 30.09 in WNW 4.6 mph 4.6 mph 70% 0.00 in WeatherDisplay:10.37 W/m2 BKN
12:31 85.2 °F 73.9 °F 30.09 in NW 4.6 mph   69% 0.00 in WeatherDisplay:10.37 W/m2 BKN
12:36 84.7 °F 74.3 °F 30.09 in NW 4.6 mph   71% 0.00 in WeatherDisplay:10.37 W/m2 BKN
12:41 84.5 °F 74.1 °F 30.09 in NW 4.6 mph   71% 0.00 in WeatherDisplay:10.37 W/m2 BKN
12:46 84.2 °F 72.9 °F 30.08 in NW 4.6 mph   69% 0.00 in WeatherDisplay:10.37 W/m2 BKN
12:51 84.0 °F 73.2 °F 30.09 in NW 4.6 mph   70% 0.00 in WeatherDisplay:10.37 W/m2 BKN
12:56 83.9 °F 73.9 °F 30.08 in NW 4.6 mph   72% 0.00 in WeatherDisplay:10.37 W/m2 BKN
13:01 84.0 °F 73.6 °F 30.08 in NW 4.6 mph   71% 0.00 in WeatherDisplay:10.37 W/m2 BKN
13:06 84.6 °F 73.7 °F 30.08 in NW 4.6 mph   70% 0.00 in WeatherDisplay:10.37 W/m2 BKN
13:11 85.6 °F 73.4 °F 30.08 in NW 4.6 mph   67% 0.00 in WeatherDisplay:10.37 W/m2 BKN
13:16 86.4 °F 74.1 °F 30.08 in NNW 4.6 mph   67% 0.00 in WeatherDisplay:10.37 W/m2 BKN
13:21 86.7 °F 73.1 °F 30.08 in ENE 4.6 mph   64% 0.00 in WeatherDisplay:10.37 W/m2 BKN
13:26 87.5 °F 75.2 °F 30.08 in NW 4.6 mph   67% 0.00 in WeatherDisplay:10.37 W/m2 BKN
13:32 88.2 °F 74.0 °F 30.08 in NW 4.6 mph 4.6 mph 63% 0.00 in WeatherDisplay:10.37 W/m2 BKN
13:37 88.2 °F 73.0 °F 30.08 in NW 4.6 mph   61% 0.00 in WeatherDisplay:10.37 W/m2 BKN
13:42 88.5 °F 74.8 °F 30.08 in WSW 4.6 mph   64% 0.00 in WeatherDisplay:10.37 W/m2 BKN
13:47 88.8 °F 74.1 °F 30.08 in WNW 4.6 mph   62% 0.00 in WeatherDisplay:10.37 W/m2 BKN
13:52 89.0 °F 73.8 °F 30.07 in WNW 4.6 mph 4.6 mph 61% 0.00 in WeatherDisplay:10.37 W/m2 BKN
13:57 89.3 °F 75.0 °F 30.07 in SW 4.6 mph   63% 0.00 in WeatherDisplay:10.37 W/m2 BKN
14:02 89.3 °F 75.0 °F 30.07 in NW 4.6 mph   63% 0.00 in WeatherDisplay:10.37 W/m2 BKN
14:07 88.3 °F 74.1 °F 30.07 in NW 4.6 mph   63% 0.00 in WeatherDisplay:10.37 W/m2 BKN
14:12 87.6 °F 74.4 °F 30.07 in NW 4.6 mph   65% 0.00 in WeatherDisplay:10.37 W/m2 BKN
14:17 86.7 °F 74.4 °F 30.07 in NW 4.6 mph   67% 0.00 in WeatherDisplay:10.37 W/m2 BKN
14:22 85.3 °F 75.7 °F 30.07 in ENE 4.6 mph 4.6 mph 73% 0.00 in WeatherDisplay:10.37 W/m2 BKN
14:24 84.4 °F 74.0 °F 30.07 in ENE 4.6 mph 4.6 mph 71% 0.00 in WeatherDisplay:10.37 W/m2 BKN
14:29 82.7 °F 73.6 °F 30.06 in East 4.6 mph 4.6 mph 74% 0.00 in WeatherDisplay:10.37 W/m2 BKN
14:34 81.2 °F 72.9 °F 30.07 in East 4.6 mph   76% 0.00 in WeatherDisplay:10.37 W/m2 BKN
14:39 79.9 °F 73.2 °F 30.09 in NNE 4.6 mph 4.6 mph 80% 0.00 in WeatherDisplay:10.37 W/m2 BKN
14:44 77.0 °F 70.7 °F 30.09 in North 4.6 mph 4.6 mph 81% 0.00 in WeatherDisplay:10.37 W/m2 BKN
14:49 74.9 °F 69.7 °F 30.10 in NNW 4.6 mph   84% 0.00 in WeatherDisplay:10.37 W/m2 BKN
14:55 73.4 °F 69.0 °F 30.10 in NW 4.6 mph   86% 0.00 in WeatherDisplay:10.37 W/m2 BKN
15:00 72.7 °F 69.0 °F 30.08 in Calm   2.0 mph 88% 0.00 in WeatherDisplay:10.37 W/m2 BKN
15:05 72.5 °F 69.1 °F 30.08 in Calm   1.0 mph 89% 0.00 in WeatherDisplay:10.37 W/m2 BKN
15:10 72.4 °F 69.3 °F 30.08 in Calm   1.0 mph 90% 0.00 in WeatherDisplay:10.37 W/m2 BKN
15:15 72.4 °F 69.6 °F 30.08 in Calm   1.0 mph 91% 0.00 in WeatherDisplay:10.37 W/m2 BKN
15:20 72.4 °F 69.6 °F 30.08 in NE 4.6 mph 4.6 mph 91% 0.00 in WeatherDisplay:10.37 W/m2 BKN
15:30 72.5 °F 70.0 °F 30.08 in Calm   1.0 mph 92% 0.00 in WeatherDisplay:10.37 W/m2 BKN
15:35 72.4 °F 69.9 °F 30.08 in Calm   1.0 mph 92% 0.00 in WeatherDisplay:10.37 W/m2 BKN
15:40 72.3 °F 69.9 °F 30.08 in Calm     92% 0.00 in WeatherDisplay:10.37 W/m2 BKN
15:45 72.3 °F 69.9 °F 30.08 in Calm   1.0 mph 92% 0.00 in WeatherDisplay:10.37 W/m2 BKN
15:50 72.4 °F 69.9 °F 30.08 in Calm     92% 0.00 in WeatherDisplay:10.37 W/m2 BKN
15:55 72.5 °F 70.0 °F 30.08 in Calm     92% 0.00 in WeatherDisplay:10.37 W/m2 BKN
16:00 72.5 °F 70.0 °F 30.08 in Calm     92% 0.00 in WeatherDisplay:10.37 W/m2 BKN
16:05 72.7 °F 70.6 °F 30.07 in Calm     93% 0.00 in WeatherDisplay:10.37 W/m2 BKN
16:10 72.9 °F 70.8 °F 30.08 in Calm     93% 0.00 in WeatherDisplay:10.37 W/m2 BKN
16:15 73.0 °F 70.9 °F 30.08 in Calm     93% 0.00 in WeatherDisplay:10.37 W/m2 BKN
16:20 73.1 °F 70.9 °F 30.08 in Calm     93% 0.00 in WeatherDisplay:10.37 W/m2 BKN
16:25 73.1 °F 71.0 °F 30.07 in Calm     93% 0.00 in WeatherDisplay:10.37 W/m2 BKN
16:30 73.1 °F 71.0 °F 30.07 in Calm   2.0 mph 93% 0.00 in WeatherDisplay:10.37 W/m2 BKN
16:35 73.3 °F 71.2 °F 30.07 in North 4.6 mph 4.6 mph 93% 0.00 in WeatherDisplay:10.37 W/m2 BKN
16:37 73.4 °F 71.3 °F 30.07 in North 4.6 mph   93% 0.00 in WeatherDisplay:10.37 W/m2 BKN
16:42 73.6 °F 71.4 °F 30.07 in North 4.6 mph   93% 0.00 in WeatherDisplay:10.37 W/m2 BKN
16:47 73.9 °F 71.7 °F 30.06 in North 4.6 mph   93% 0.00 in WeatherDisplay:10.37 W/m2 BKN
16:52 74.1 °F 71.9 °F 30.07 in North 4.6 mph   93% 0.00 in WeatherDisplay:10.37 W/m2 BKN
16:57 74.3 °F 72.1 °F 30.07 in North 4.6 mph   93% 0.00 in WeatherDisplay:10.37 W/m2 BKN
17:02 74.5 °F 72.3 °F 30.07 in North 4.6 mph   93% 0.00 in WeatherDisplay:10.37 W/m2 BKN
17:07 74.8 °F 72.6 °F 30.07 in North 4.6 mph   93% 0.00 in WeatherDisplay:10.37 W/m2 BKN
17:08 74.8 °F 72.6 °F 30.07 in North 4.6 mph 4.6 mph 93% 0.00 in WeatherDisplay:10.37 W/m2 BKN
17:13 74.8 °F 72.6 °F 30.06 in North 4.6 mph   93% 0.00 in WeatherDisplay:10.37 W/m2 BKN
17:18 75.1 °F 72.9 °F 30.06 in North 4.6 mph   93% 0.00 in WeatherDisplay:10.37 W/m2 BKN
17:23 75.4 °F 73.2 °F 30.06 in North 4.6 mph   93% 0.00 in WeatherDisplay:10.37 W/m2 BKN
17:28 75.5 °F 73.3 °F 30.06 in North 4.6 mph   93% 0.00 in WeatherDisplay:10.37 W/m2 BKN
17:33 75.8 °F 73.6 °F 30.06 in North 4.6 mph   93% 0.00 in WeatherDisplay:10.37 W/m2 BKN
17:39 76.1 °F 73.9 °F 30.06 in North 4.6 mph   93% 0.00 in WeatherDisplay:10.37 W/m2 BKN
17:44 76.1 °F 73.9 °F 30.05 in North 4.6 mph   93% 0.00 in WeatherDisplay:10.37 W/m2 BKN
17:49 76.2 °F 74.0 °F 30.05 in North 4.6 mph   93% 0.00 in WeatherDisplay:10.37 W/m2 BKN
17:54 76.2 °F 73.7 °F 30.06 in North 4.6 mph   92% 0.00 in WeatherDisplay:10.37 W/m2 BKN
17:59 76.2 °F 73.4 °F 30.06 in North 4.6 mph   91% 0.00 in WeatherDisplay:10.37 W/m2 BKN
18:04 76.3 °F 73.5 °F 30.06 in North 4.6 mph   91% 0.00 in WeatherDisplay:10.37 W/m2 BKN
18:06 76.4 °F 73.6 °F 30.06 in North 4.6 mph   91% 0.00 in WeatherDisplay:10.37 W/m2 BKN
18:11 76.6 °F 73.8 °F 30.05 in North 4.6 mph   91% 0.00 in WeatherDisplay:10.37 W/m2 BKN
18:16 76.9 °F 74.1 °F 30.05 in North 4.6 mph   91% 0.00 in WeatherDisplay:10.37 W/m2 BKN
18:21 76.9 °F 73.4 °F 30.04 in North 4.6 mph   89% 0.00 in WeatherDisplay:10.37 W/m2 BKN
18:26 76.8 °F 73.0 °F 30.04 in North 4.6 mph   88% 0.00 in WeatherDisplay:10.37 W/m2 BKN
18:31 76.7 °F 72.9 °F 30.04 in North 4.6 mph   88% 0.00 in WeatherDisplay:10.37 W/m2 BKN
18:36 76.8 °F 73.3 °F 30.04 in North 4.6 mph   89% 0.00 in WeatherDisplay:10.37 W/m2 BKN
18:41 76.7 °F 72.9 °F 30.03 in North 4.6 mph   88% 0.00 in WeatherDisplay:10.37 W/m2 BKN
18:46 76.6 °F 72.8 °F 30.03 in North 4.6 mph   88% 0.00 in WeatherDisplay:10.37 W/m2 BKN
18:51 76.5 °F 73.0 °F 30.03 in North 4.6 mph   89% 0.00 in WeatherDisplay:10.37 W/m2 BKN
18:56 76.5 °F 73.0 °F 30.03 in North 4.6 mph   89% 0.00 in WeatherDisplay:10.37 W/m2 BKN
19:02 76.5 °F 73.0 °F 30.03 in North 4.6 mph   89% 0.00 in WeatherDisplay:10.37 W/m2 BKN
19:07 76.4 °F 72.9 °F 30.03 in North 4.6 mph   89% 0.00 in WeatherDisplay:10.37 W/m2 BKN
19:12 76.4 °F 72.9 °F 30.04 in North 4.6 mph   89% 0.00 in WeatherDisplay:10.37 W/m2 BKN
19:17 76.3 °F 72.5 °F 30.04 in North 4.6 mph   88% 0.00 in WeatherDisplay:10.37 W/m2 BKN
19:22 76.1 °F 72.3 °F 30.04 in North 4.6 mph   88% 0.00 in WeatherDisplay:10.37 W/m2 BKN
19:27 76.1 °F 72.3 °F 30.05 in North 4.6 mph   88% 0.00 in WeatherDisplay:10.37 W/m2 BKN
19:32 76.0 °F 72.2 °F 30.06 in North 4.6 mph   88% 0.00 in WeatherDisplay:10.37 W/m2 BKN
19:37 76.1 °F 72.3 °F 30.06 in North 4.6 mph   88% 0.00 in WeatherDisplay:10.37 W/m2 BKN
19:42 75.9 °F 72.1 °F 30.06 in North 4.6 mph   88% 0.00 in WeatherDisplay:10.37 W/m2 BKN
19:47 75.9 °F 72.1 °F 30.06 in North 4.6 mph   88% 0.00 in WeatherDisplay:10.37 W/m2 BKN
19:52 75.8 °F 72.0 °F 30.06 in North 4.6 mph   88% 0.00 in WeatherDisplay:10.37 W/m2 BKN
19:57 75.7 °F 72.2 °F 30.06 in North 4.6 mph   89% 0.00 in WeatherDisplay:10.37 W/m2 BKN
20:02 75.7 °F 72.2 °F 30.07 in North 4.6 mph   89% 0.00 in WeatherDisplay:10.37 W/m2 BKN
20:07 75.6 °F 72.1 °F 30.07 in North 4.6 mph   89% 0.00 in WeatherDisplay:10.37 W/m2 BKN
20:12 75.7 °F 72.2 °F 30.08 in North 4.6 mph   89% 0.00 in WeatherDisplay:10.37 W/m2 BKN
20:18 75.7 °F 72.2 °F 30.07 in North 4.6 mph   89% 0.00 in WeatherDisplay:10.37 W/m2 BKN
20:23 75.6 °F 72.5 °F 30.07 in North 4.6 mph   90% 0.00 in WeatherDisplay:10.37 W/m2 BKN
20:28 75.5 °F 72.4 °F 30.07 in North 4.6 mph   90% 0.00 in WeatherDisplay:10.37 W/m2 BKN
20:33 75.4 °F 72.3 °F 30.07 in North 4.6 mph   90% 0.00 in WeatherDisplay:10.37 W/m2 OVC
20:38 75.3 °F 72.2 °F 30.07 in North 4.6 mph   90% 0.00 in WeatherDisplay:10.37 W/m2 OVC
20:43 75.3 °F 72.2 °F 30.07 in North 4.6 mph   90% 0.00 in WeatherDisplay:10.37 W/m2 OVC
20:48 75.1 °F 72.0 °F 30.07 in North 4.6 mph   90% 0.00 in WeatherDisplay:10.37 W/m2 OVC
20:53 75.0 °F 71.9 °F 30.07 in North 4.6 mph   90% 0.00 in WeatherDisplay:10.37 W/m2 OVC
20:58 74.9 °F 71.8 °F 30.08 in North 4.6 mph   90% 0.00 in WeatherDisplay:10.37 W/m2 OVC
21:03 74.8 °F 71.7 °F 30.08 in North 4.6 mph   90% 0.00 in WeatherDisplay:10.37 W/m2 OVC
21:08 74.7 °F 71.6 °F 30.08 in North 4.6 mph   90% 0.00 in WeatherDisplay:10.37 W/m2 OVC
21:13 74.6 °F 71.5 °F 30.08 in North 4.6 mph   90% 0.00 in WeatherDisplay:10.37 W/m2 OVC
21:18 74.4 °F 71.3 °F 30.08 in North 4.6 mph   90% 0.00 in WeatherDisplay:10.37 W/m2 OVC
21:23 74.3 °F 70.8 °F 30.08 in North 4.6 mph   89% 0.00 in WeatherDisplay:10.37 W/m2 BKN
21:28 74.1 °F 70.6 °F 30.08 in North 4.6 mph   89% 0.00 in WeatherDisplay:10.37 W/m2 BKN
21:33 74.2 °F 71.1 °F 30.08 in North 4.6 mph   90% 0.00 in WeatherDisplay:10.37 W/m2 BKN
21:39 74.1 °F 70.6 °F 30.08 in North 4.6 mph   89% 0.00 in WeatherDisplay:10.37 W/m2 BKN
21:44 73.9 °F 70.5 °F 30.08 in North 4.6 mph   89% 0.00 in WeatherDisplay:10.37 W/m2 BKN
21:49 73.8 °F 70.4 °F 30.08 in North 4.6 mph   89% 0.00 in WeatherDisplay:10.37 W/m2 BKN
21:54 73.7 °F 70.6 °F 30.09 in North 4.6 mph   90% 0.00 in WeatherDisplay:10.37 W/m2 BKN
21:59 73.6 °F 70.5 °F 30.09 in North 4.6 mph   90% 0.00 in WeatherDisplay:10.37 W/m2 BKN
22:04 73.4 °F 70.0 °F 30.09 in North 4.6 mph   89% 0.00 in WeatherDisplay:10.37 W/m2 BKN
22:09 73.3 °F 70.2 °F 30.09 in North 4.6 mph   90% 0.00 in WeatherDisplay:10.37 W/m2 BKN
22:14 73.2 °F 70.1 °F 30.09 in North 4.6 mph   90% 0.00 in WeatherDisplay:10.37 W/m2 BKN
22:19 73.1 °F 70.0 °F 30.09 in North 4.6 mph   90% 0.00 in WeatherDisplay:10.37 W/m2 BKN
22:24 72.9 °F 69.8 °F 30.09 in North 4.6 mph   90% 0.00 in WeatherDisplay:10.37 W/m2 SCT
22:29 72.8 °F 69.7 °F 30.09 in North 4.6 mph   90% 0.00 in WeatherDisplay:10.37 W/m2 SCT
22:34 72.8 °F 69.7 °F 30.10 in North 4.6 mph   90% 0.00 in WeatherDisplay:10.37 W/m2 SCT
22:39 72.8 °F 69.7 °F 30.10 in North 4.6 mph   90% 0.00 in WeatherDisplay:10.37 W/m2 SCT
22:44 72.6 °F 69.5 °F 30.10 in North 4.6 mph   90% 0.00 in WeatherDisplay:10.37 W/m2 SCT
22:49 72.5 °F 69.4 °F 30.11 in North 4.6 mph   90% 0.00 in WeatherDisplay:10.37 W/m2 SCT
22:55 72.4 °F 69.6 °F 30.10 in North 4.6 mph   91% 0.00 in WeatherDisplay:10.37 W/m2 SCT
23:00 72.4 °F 69.6 °F 30.10 in Calm     91% 0.00 in WeatherDisplay:10.37 W/m2 SCT
23:05 72.4 °F 69.6 °F 30.10 in North 4.6 mph   91% 0.00 in WeatherDisplay:10.37 W/m2 SCT
23:10 72.3 °F 69.5 °F 30.11 in North 4.6 mph   91% 0.00 in WeatherDisplay:10.37 W/m2 SCT
23:15 72.2 °F 69.4 °F 30.11 in North 4.6 mph   91% 0.00 in WeatherDisplay:10.37 W/m2 SCT
23:20 72.1 °F 69.3 °F 30.12 in North 4.6 mph   91% 0.00 in WeatherDisplay:10.37 W/m2 SCT
23:25 72.0 °F 69.2 °F 30.12 in North 4.6 mph   91% 0.00 in WeatherDisplay:10.37 W/m2 SCT
23:30 71.9 °F 69.1 °F 30.12 in North 4.6 mph   91% 0.00 in WeatherDisplay:10.37 W/m2 BKN
23:35 71.9 °F 69.1 °F 30.12 in North 4.6 mph   91% 0.00 in WeatherDisplay:10.37 W/m2 BKN
23:40 71.8 °F 69.0 °F 30.12 in North 4.6 mph   91% 0.00 in WeatherDisplay:10.37 W/m2 BKN
23:45 71.8 °F 69.3 °F 30.12 in North 4.6 mph   92% 0.00 in WeatherDisplay:10.37 W/m2 BKN
23:50 71.8 °F 69.0 °F 30.12 in North 4.6 mph   91% 0.00 in WeatherDisplay:10.37 W/m2 BKN
23:56 71.8 °F 69.0 °F 30.12 in North 4.6 mph   91% 0.00 in WeatherDisplay:10.37 W/m2 BKN
Piedmont Bend
Compliments of Weather Underground - 4 mb